createdAt,value
2023-01-25T00:02:01.311Z,7.23
2023-01-25T00:04:28.633Z,7.33
2023-01-25T00:06:55.703Z,7.27
2023-01-25T00:09:22.876Z,7.23
2023-01-25T00:11:50.001Z,6.63
2023-01-25T00:14:17.222Z,7.87
2023-01-25T00:16:44.388Z,7.50
2023-01-25T00:19:11.817Z,7.20
2023-01-25T00:21:39.454Z,7.03
2023-01-25T00:24:06.720Z,6.90
2023-01-25T00:26:34.688Z,7.13
2023-01-25T00:29:02.188Z,6.63
2023-01-25T00:31:51.581Z,6.53
2023-01-25T00:34:18.661Z,6.67
2023-01-25T00:36:45.804Z,6.43
2023-01-25T00:39:13.770Z,7.23
2023-01-25T00:41:41.321Z,6.57
2023-01-25T00:44:08.681Z,6.40
2023-01-25T00:46:35.723Z,6.10
2023-01-25T00:49:02.857Z,6.57
2023-01-25T00:51:29.953Z,6.70
2023-01-25T00:53:57.111Z,6.50
2023-01-25T00:56:24.181Z,6.20
2023-01-25T00:58:51.355Z,6.47
2023-01-25T01:01:18.453Z,6.67
2023-01-25T01:03:45.639Z,6.50
2023-01-25T01:06:13.108Z,6.60
2023-01-25T01:08:41.100Z,7.50
2023-01-25T01:11:09.877Z,6.57
2023-01-25T01:13:37.416Z,5.90
2023-01-25T01:16:05.525Z,6.13
2023-01-25T01:18:36.212Z,6.33
2023-01-25T01:21:03.359Z,5.97
2023-01-25T01:23:30.872Z,6.10
2023-01-25T01:26:00.391Z,5.60
2023-01-25T01:28:28.892Z,5.70
2023-01-25T01:31:00.594Z,5.53
2023-01-25T01:33:27.831Z,5.80
2023-01-25T01:35:54.944Z,6.20
2023-01-25T01:38:22.078Z,5.77
2023-01-25T01:40:49.855Z,6.20
2023-01-25T01:43:18.320Z,6.33
2023-01-25T01:45:48.518Z,5.43
2023-01-25T01:48:34.040Z,5.50
2023-01-25T01:51:03.746Z,5.80
2023-01-25T01:53:32.205Z,5.40
2023-01-25T01:56:01.300Z,5.43
2023-01-25T01:58:29.171Z,5.67
2023-01-25T02:00:56.328Z,5.60
2023-01-25T02:03:23.578Z,5.40
2023-01-25T02:05:56.996Z,5.87
2023-01-25T02:08:24.223Z,5.70
2023-01-25T02:10:51.356Z,5.93
2023-01-25T02:13:21.992Z,6.10
2023-01-25T02:15:51.362Z,5.53
2023-01-25T02:18:19.342Z,5.90
2023-01-25T02:20:47.696Z,6.40
2023-01-25T02:23:33.618Z,6.37
2023-01-25T02:26:02.402Z,6.07
2023-01-25T02:28:38.590Z,6.13
2023-01-25T02:31:05.828Z,5.87
2023-01-25T02:33:32.944Z,5.50
2023-01-25T02:36:09.259Z,5.80
2023-01-25T02:38:39.118Z,5.80
2023-01-25T02:41:09.592Z,6.20
2023-01-25T02:43:36.687Z,6.40
2023-01-25T02:46:15.434Z,5.90
2023-01-25T02:48:42.515Z,6.83
2023-01-25T02:51:10.092Z,6.80
2023-01-25T02:53:37.509Z,7.20
2023-01-25T02:56:04.767Z,6.87
2023-01-25T02:58:31.841Z,6.70
2023-01-25T03:00:59.219Z,6.53
2023-01-25T03:03:26.398Z,7.07
2023-01-25T03:05:53.468Z,7.07
2023-01-25T03:08:20.516Z,6.87
2023-01-25T03:10:47.623Z,7.17
2023-01-25T03:13:14.715Z,6.90
2023-01-25T03:15:41.747Z,7.50
2023-01-25T03:18:08.817Z,6.37
2023-01-25T03:20:35.849Z,6.77
2023-01-25T03:23:02.936Z,6.73
2023-01-25T03:25:29.962Z,6.77
2023-01-25T03:27:57.097Z,6.90
2023-01-25T03:30:24.293Z,8.03
2023-01-25T03:32:52.863Z,7.43
2023-01-25T03:35:19.940Z,7.00
2023-01-25T03:37:46.981Z,7.27
2023-01-25T03:40:14.192Z,6.70
2023-01-25T03:42:41.263Z,7.27
2023-01-25T03:45:09.007Z,6.97
2023-01-25T03:47:36.219Z,6.13
2023-01-25T03:50:03.282Z,6.73
2023-01-25T03:52:37.221Z,6.30
2023-01-25T03:55:04.405Z,6.27
2023-01-25T03:57:31.547Z,6.47
2023-01-25T03:59:58.616Z,6.23
2023-01-25T04:02:25.753Z,6.60
2023-01-25T04:04:52.814Z,5.87
2023-01-25T04:07:20.142Z,6.47
2023-01-25T04:09:47.254Z,6.23
2023-01-25T04:12:14.318Z,5.90
2023-01-25T04:14:44.555Z,6.43
2023-01-25T04:17:12.870Z,6.37
2023-01-25T04:19:39.944Z,6.37
2023-01-25T04:22:07.014Z,5.97
2023-01-25T04:24:34.056Z,6.13
2023-01-25T04:27:01.129Z,5.60
2023-01-25T04:29:40.124Z,6.63
2023-01-25T04:32:08.067Z,6.20
2023-01-25T04:34:35.218Z,5.80
2023-01-25T04:37:02.551Z,5.50
2023-01-25T04:39:29.620Z,6.63
2023-01-25T04:41:56.707Z,6.23
2023-01-25T04:44:23.791Z,5.80
2023-01-25T04:46:50.852Z,6.00
2023-01-25T04:49:17.927Z,6.40
2023-01-25T04:51:44.982Z,6.30
2023-01-25T04:54:12.066Z,5.90
2023-01-25T04:56:39.972Z,6.00
2023-01-25T04:59:07.067Z,6.27
2023-01-25T05:01:34.204Z,6.13
2023-01-25T05:04:01.295Z,5.83
2023-01-25T05:06:28.397Z,5.60
2023-01-25T05:08:55.443Z,5.77
2023-01-25T05:11:22.597Z,5.67
2023-01-25T05:13:49.683Z,5.33
2023-01-25T05:16:16.801Z,4.70
2023-01-25T05:18:48.751Z,5.00
2023-01-25T05:21:35.222Z,4.93
2023-01-25T05:24:02.345Z,5.43
2023-01-25T05:26:48.114Z,5.23
2023-01-25T05:29:15.163Z,5.50
2023-01-25T05:31:42.289Z,5.73
2023-01-25T05:34:09.628Z,6.17
2023-01-25T05:36:36.693Z,5.63
2023-01-25T05:39:06.271Z,6.30
2023-01-25T05:41:33.380Z,6.27
2023-01-25T05:44:00.647Z,6.03
2023-01-25T05:46:28.575Z,5.70
2023-01-25T05:48:55.730Z,6.03
2023-01-25T05:51:23.018Z,5.60
2023-01-25T05:53:50.114Z,6.10
2023-01-25T05:56:17.324Z,6.00
2023-01-25T05:58:44.411Z,5.23
2023-01-25T06:01:11.703Z,5.70
2023-01-25T06:03:38.775Z,6.07
2023-01-25T06:06:06.555Z,5.37
2023-01-25T06:08:33.641Z,5.80
2023-01-25T06:11:00.738Z,5.00
2023-01-25T06:13:29.376Z,5.57
2023-01-25T06:15:57.036Z,6.47
2023-01-25T06:18:24.650Z,5.83
2023-01-25T06:20:51.905Z,5.80
2023-01-25T06:23:19.005Z,6.60
2023-01-25T06:25:46.078Z,5.67
2023-01-25T06:28:13.127Z,5.13
2023-01-25T06:30:40.234Z,4.77
2023-01-25T06:33:07.347Z,5.20
2023-01-25T06:35:34.888Z,5.40
2023-01-25T06:38:02.099Z,5.13
2023-01-25T06:40:29.273Z,5.27
2023-01-25T06:42:56.506Z,4.90
2023-01-25T06:45:23.632Z,4.73
2023-01-25T06:47:51.973Z,4.90
2023-01-25T06:50:19.173Z,5.53
2023-01-25T06:52:51.875Z,5.60
2023-01-25T06:55:18.933Z,5.03
2023-01-25T06:57:46.011Z,5.53
2023-01-25T07:00:13.488Z,5.10
2023-01-25T07:02:40.594Z,3.93
2023-01-25T07:05:08.263Z,4.13
2023-01-25T07:07:35.676Z,4.00
2023-01-25T07:10:02.712Z,4.70
2023-01-25T07:12:30.467Z,4.83
2023-01-25T07:14:57.578Z,4.37
2023-01-25T07:17:24.639Z,4.73
2023-01-25T07:19:51.715Z,4.87
2023-01-25T07:22:18.842Z,4.70
2023-01-25T07:24:49.967Z,4.77
2023-01-25T07:27:17.681Z,4.80
2023-01-25T07:29:44.889Z,4.87
2023-01-25T07:32:14.816Z,5.10
2023-01-25T07:34:41.929Z,5.20
2023-01-25T07:37:10.108Z,5.43
2023-01-25T07:39:37.234Z,4.80
2023-01-25T07:42:04.351Z,5.10
2023-01-25T07:44:31.481Z,4.93
2023-01-25T07:46:58.523Z,4.23
2023-01-25T07:49:25.632Z,4.47
2023-01-25T07:51:52.705Z,4.17
2023-01-25T07:54:19.816Z,3.90
2023-01-25T07:56:46.886Z,4.20
2023-01-25T07:59:14.373Z,5.13
2023-01-25T08:01:41.829Z,4.50
2023-01-25T08:04:09.235Z,5.27
2023-01-25T08:06:39.064Z,5.13
2023-01-25T08:09:12.132Z,5.20
2023-01-25T08:11:39.661Z,5.00
2023-01-25T08:14:06.728Z,5.03
2023-01-25T08:16:34.132Z,5.67
2023-01-25T08:19:03.195Z,5.17
2023-01-25T08:21:32.168Z,5.03
2023-01-25T08:24:00.356Z,5.07
2023-01-25T08:26:28.391Z,5.10
2023-01-25T08:28:55.586Z,4.47
2023-01-25T08:31:24.436Z,5.27
2023-01-25T08:33:51.739Z,4.17
2023-01-25T08:36:19.825Z,4.83
2023-01-25T08:38:47.620Z,5.13
2023-01-25T08:41:22.117Z,5.40
2023-01-25T08:43:49.382Z,5.37
2023-01-25T08:46:17.015Z,5.73
2023-01-25T08:48:44.111Z,5.97
2023-01-25T08:51:15.445Z,6.43
2023-01-25T08:53:42.817Z,5.93
2023-01-25T08:56:14.741Z,5.77
2023-01-25T08:58:43.228Z,5.73
2023-01-25T09:01:11.520Z,5.60
2023-01-25T09:03:39.872Z,5.60
2023-01-25T09:06:07.653Z,5.80
2023-01-25T09:08:35.118Z,5.70
2023-01-25T09:11:02.886Z,6.17
2023-01-25T09:13:30.010Z,5.73
2023-01-25T09:16:00.844Z,5.83
2023-01-25T09:18:28.549Z,5.83
2023-01-25T09:20:55.803Z,5.77
2023-01-25T09:23:23.966Z,5.13
2023-01-25T09:25:58.561Z,5.37
2023-01-25T09:28:26.264Z,5.80
2023-01-25T09:31:19.950Z,6.03
2023-01-25T09:33:47.769Z,5.63
2023-01-25T09:36:15.698Z,5.60
2023-01-25T09:38:42.881Z,6.40
2023-01-25T09:41:28.506Z,6.70
2023-01-25T09:43:56.778Z,5.93
2023-01-25T09:46:32.838Z,6.33
2023-01-25T09:49:08.701Z,6.80
2023-01-25T09:51:54.893Z,7.30
2023-01-25T09:54:22.950Z,7.33
2023-01-25T09:56:52.216Z,7.23
2023-01-25T09:59:21.680Z,6.90
2023-01-25T10:01:57.997Z,5.93
2023-01-25T10:04:25.096Z,6.43
2023-01-25T10:07:01.538Z,6.20
2023-01-25T10:09:28.979Z,6.27
2023-01-25T10:11:56.094Z,6.80
2023-01-25T10:14:23.187Z,6.57
2023-01-25T10:16:59.580Z,7.07
2023-01-25T10:19:34.356Z,7.20
2023-01-25T10:22:02.698Z,7.47
2023-01-25T10:24:48.574Z,6.77
2023-01-25T10:27:21.903Z,7.83
2023-01-25T10:29:49.917Z,6.60
2023-01-25T10:32:23.771Z,7.00
2023-01-25T10:34:56.962Z,7.50
2023-01-25T10:37:36.565Z,7.07
2023-01-25T10:40:05.520Z,7.27
2023-01-25T10:42:38.052Z,7.23
2023-01-25T10:45:15.736Z,7.00
2023-01-25T10:47:44.748Z,7.33
2023-01-25T10:50:31.831Z,6.80
2023-01-25T10:52:59.528Z,6.90
2023-01-25T10:55:26.671Z,6.43
2023-01-25T10:57:58.135Z,6.50
2023-01-25T11:00:25.998Z,6.47
2023-01-25T11:02:53.892Z,6.33
2023-01-25T11:05:36.696Z,6.37
2023-01-25T11:08:22.661Z,6.57
2023-01-25T11:10:50.131Z,6.87
2023-01-25T11:13:17.271Z,7.03
2023-01-25T11:15:45.348Z,6.77
2023-01-25T11:18:28.417Z,7.10
2023-01-25T11:21:06.250Z,6.67
2023-01-25T11:23:34.485Z,7.00
2023-01-25T11:26:12.275Z,6.27
2023-01-25T11:28:39.393Z,6.30
2023-01-25T11:31:10.083Z,6.13
2023-01-25T11:33:37.220Z,6.83
2023-01-25T11:36:07.176Z,5.93
2023-01-25T11:38:34.338Z,5.77
2023-01-25T11:41:20.856Z,6.33
2023-01-25T11:43:47.873Z,5.83
2023-01-25T11:46:18.029Z,5.70
2023-01-25T11:49:11.290Z,6.43
2023-01-25T11:51:44.328Z,5.67
2023-01-25T11:54:14.373Z,5.07
2023-01-25T11:57:10.647Z,5.63
2023-01-25T11:59:43.582Z,4.80
2023-01-25T12:02:24.525Z,5.47
2023-01-25T12:05:30.119Z,5.53
2023-01-25T12:07:59.777Z,5.17
2023-01-25T12:10:31.214Z,5.37
2023-01-25T12:13:06.108Z,5.13
2023-01-25T12:15:35.936Z,5.30
2023-01-25T12:18:03.043Z,5.57
2023-01-25T12:20:36.217Z,6.00
2023-01-25T12:23:09.026Z,5.77
2023-01-25T12:25:36.033Z,6.13
2023-01-25T12:28:03.132Z,6.90
2023-01-25T12:30:50.069Z,5.53
2023-01-25T12:33:23.155Z,6.10
2023-01-25T12:35:55.072Z,5.90
2023-01-25T12:38:32.653Z,6.00
2023-01-25T12:41:15.165Z,5.73
2023-01-25T12:43:51.864Z,5.17
2023-01-25T12:46:25.355Z,5.17
2023-01-25T12:48:53.470Z,5.47
2023-01-25T12:51:25.102Z,5.60
2023-01-25T12:53:53.316Z,5.70
2023-01-25T12:56:33.461Z,5.60
2023-01-25T12:59:03.673Z,5.23
2023-01-25T13:01:34.341Z,5.70
2023-01-25T13:04:01.624Z,6.20
2023-01-25T13:06:34.371Z,5.70
2023-01-25T13:09:10.431Z,6.27
2023-01-25T13:11:39.484Z,5.33
2023-01-25T13:14:18.861Z,5.77
2023-01-25T13:16:51.843Z,6.47
2023-01-25T13:19:30.225Z,6.13
2023-01-25T13:21:58.443Z,6.30
2023-01-25T13:24:25.591Z,5.90
2023-01-25T13:26:55.766Z,6.50
2023-01-25T13:29:31.841Z,5.40
2023-01-25T13:31:59.881Z,5.47
2023-01-25T13:34:36.309Z,5.43
2023-01-25T13:37:06.132Z,5.20
2023-01-25T13:39:35.952Z,5.60
2023-01-25T13:42:17.444Z,5.47
2023-01-25T13:44:46.106Z,4.77
2023-01-25T13:47:17.623Z,4.80
2023-01-25T13:49:54.650Z,5.90
2023-01-25T13:52:23.808Z,6.70
2023-01-25T13:54:51.734Z,5.67
2023-01-25T13:57:23.454Z,6.07
2023-01-25T14:00:09.960Z,6.27
2023-01-25T14:02:37.685Z,6.13
2023-01-25T14:05:07.722Z,5.90
2023-01-25T14:07:36.763Z,6.40
2023-01-25T14:10:08.645Z,6.03
2023-01-25T14:12:40.520Z,5.63
2023-01-25T14:15:19.807Z,6.10
2023-01-25T14:17:47.206Z,6.57
2023-01-25T14:20:20.281Z,6.00
2023-01-25T14:22:51.072Z,6.10
2023-01-25T14:25:26.029Z,6.43
2023-01-25T14:27:55.887Z,6.60
2023-01-25T14:30:22.964Z,6.10
2023-01-25T14:32:50.913Z,6.10
2023-01-25T14:35:56.253Z,6.40
2023-01-25T14:38:38.311Z,6.07
2023-01-25T14:41:08.407Z,6.13
2023-01-25T14:43:37.736Z,6.70
2023-01-25T14:46:21.192Z,6.50
2023-01-25T14:48:48.499Z,7.07
2023-01-25T14:51:17.728Z,6.93
2023-01-25T14:53:47.645Z,6.20
2023-01-25T14:56:19.347Z,6.63
2023-01-25T14:58:50.937Z,6.80
2023-01-25T15:01:41.751Z,6.33
2023-01-25T15:04:13.518Z,6.30
2023-01-25T15:06:45.914Z,6.37
2023-01-25T15:09:31.425Z,6.73
2023-01-25T15:12:17.020Z,6.40
2023-01-25T15:14:51.027Z,6.63
2023-01-25T15:17:36.452Z,7.20
2023-01-25T15:20:04.069Z,7.03
2023-01-25T15:22:31.201Z,7.17
2023-01-25T15:24:58.793Z,6.77
2023-01-25T15:27:25.873Z,6.87
2023-01-25T15:29:53.067Z,7.30
2023-01-25T15:32:21.959Z,6.97
2023-01-25T15:34:49.230Z,7.20
2023-01-25T15:37:17.352Z,7.03
2023-01-25T15:39:44.422Z,7.07
2023-01-25T15:42:11.567Z,6.90
2023-01-25T15:44:38.616Z,7.27
2023-01-25T15:47:05.745Z,6.83
2023-01-25T15:49:32.943Z,7.17
2023-01-25T15:52:01.275Z,7.40
2023-01-25T15:54:28.404Z,7.10
2023-01-25T15:56:56.810Z,6.90
2023-01-25T15:59:24.298Z,6.13
2023-01-25T16:01:51.554Z,7.17
2023-01-25T16:04:18.604Z,7.20
2023-01-25T16:06:46.839Z,6.90
2023-01-25T16:09:15.495Z,7.27
2023-01-25T16:11:42.837Z,7.77
2023-01-25T16:14:09.976Z,7.20
2023-01-25T16:16:39.770Z,6.97
2023-01-25T16:19:07.042Z,6.77
2023-01-25T16:21:34.129Z,8.23
2023-01-25T16:24:01.232Z,7.90
2023-01-25T16:26:29.116Z,8.00
2023-01-25T16:28:56.274Z,6.63
2023-01-25T16:31:32.412Z,7.40
2023-01-25T16:34:00.357Z,7.43
2023-01-25T16:36:27.455Z,7.43
2023-01-25T16:38:54.575Z,7.73
2023-01-25T16:41:21.741Z,7.40
2023-01-25T16:43:50.025Z,7.67
2023-01-25T16:46:17.309Z,8.40
2023-01-25T16:48:45.123Z,7.70
2023-01-25T16:51:16.937Z,8.43
2023-01-25T16:53:44.196Z,8.37
2023-01-25T16:56:18.546Z,8.07
2023-01-25T16:58:45.764Z,7.60
2023-01-25T17:01:13.696Z,8.00
2023-01-25T17:03:40.924Z,8.57
2023-01-25T17:06:08.759Z,7.03
2023-01-25T17:08:35.910Z,7.50
2023-01-25T17:11:06.481Z,7.27
2023-01-25T17:13:33.935Z,7.70
2023-01-25T17:16:01.226Z,8.03
2023-01-25T17:18:29.357Z,7.37
2023-01-25T17:20:59.176Z,7.77
2023-01-25T17:23:27.674Z,7.63
2023-01-25T17:25:55.704Z,7.93
2023-01-25T17:28:23.327Z,7.53
2023-01-25T17:30:54.578Z,7.33
2023-01-25T17:33:21.921Z,8.60
2023-01-25T17:35:49.120Z,8.10
2023-01-25T17:38:16.178Z,8.23
2023-01-25T17:40:43.236Z,8.93
2023-01-25T17:43:10.285Z,9.00
2023-01-25T17:45:40.586Z,8.80
2023-01-25T17:48:08.946Z,7.10
2023-01-25T17:50:36.585Z,8.20
2023-01-25T17:53:04.259Z,7.73
2023-01-25T17:55:31.362Z,7.83
2023-01-25T17:57:59.100Z,7.70
2023-01-25T18:00:26.428Z,7.53
2023-01-25T18:02:54.712Z,9.23
2023-01-25T18:05:22.034Z,9.17
2023-01-25T18:07:49.099Z,9.00
2023-01-25T18:10:16.275Z,9.50
2023-01-25T18:12:44.976Z,9.03
2023-01-25T18:15:15.175Z,8.83
2023-01-25T18:17:42.280Z,9.00
2023-01-25T18:20:12.429Z,9.03
2023-01-25T18:22:39.637Z,9.30
2023-01-25T18:25:08.765Z,8.53
2023-01-25T18:27:36.020Z,9.43
2023-01-25T18:30:26.255Z,8.90
2023-01-25T18:32:53.526Z,8.67
2023-01-25T18:35:20.748Z,9.07
2023-01-25T18:37:48.091Z,8.60
2023-01-25T18:40:17.474Z,7.93
2023-01-25T18:42:45.631Z,7.90
2023-01-25T18:45:13.394Z,7.87
2023-01-25T18:47:40.553Z,7.60
2023-01-25T18:50:07.982Z,8.53
2023-01-25T18:52:35.743Z,8.03
2023-01-25T18:55:03.265Z,8.70
2023-01-25T18:57:30.322Z,8.17
2023-01-25T18:59:59.584Z,8.90
2023-01-25T19:02:27.384Z,8.00
2023-01-25T19:04:55.449Z,7.80
2023-01-25T19:07:22.597Z,8.07
2023-01-25T19:09:49.791Z,8.60
2023-01-25T19:12:16.945Z,8.77
2023-01-25T19:14:44.034Z,8.70
2023-01-25T19:17:11.121Z,9.30
2023-01-25T19:19:38.272Z,8.73
2023-01-25T19:22:05.628Z,7.70
2023-01-25T19:24:32.694Z,8.00
2023-01-25T19:26:59.778Z,7.93
2023-01-25T19:29:26.868Z,9.13
2023-01-25T19:31:54.109Z,8.40
2023-01-25T19:34:21.347Z,8.13
2023-01-25T19:36:53.628Z,9.27
2023-01-25T19:39:20.769Z,8.97
2023-01-25T19:41:47.862Z,9.13
2023-01-25T19:44:15.314Z,9.53
2023-01-25T19:46:42.560Z,10.07
2023-01-25T19:49:10.989Z,9.70
2023-01-25T19:51:41.181Z,9.77
2023-01-25T19:54:10.745Z,10.03
2023-01-25T19:56:39.506Z,9.77
2023-01-25T19:59:07.702Z,10.67
2023-01-25T20:01:43.766Z,9.93
2023-01-25T20:04:12.358Z,9.90
2023-01-25T20:06:39.693Z,9.60
2023-01-25T20:09:06.809Z,9.87
2023-01-25T20:11:34.547Z,9.00
2023-01-25T20:14:03.013Z,10.07
2023-01-25T20:16:32.124Z,10.87
2023-01-25T20:18:59.686Z,10.77
2023-01-25T20:21:28.000Z,10.43
2023-01-25T20:23:58.029Z,10.90
2023-01-25T20:26:26.761Z,9.50
2023-01-25T20:28:55.292Z,9.87
2023-01-25T20:31:33.553Z,10.83
2023-01-25T20:34:01.859Z,10.00
2023-01-25T20:36:30.201Z,10.60
2023-01-25T20:38:57.710Z,10.20
2023-01-25T20:41:25.168Z,10.37
2023-01-25T20:43:53.806Z,10.83
2023-01-25T20:46:22.164Z,10.37
2023-01-25T20:48:49.296Z,9.77
2023-01-25T20:51:17.052Z,10.37
2023-01-25T20:53:47.453Z,9.70
2023-01-25T20:56:15.001Z,10.20
2023-01-25T20:58:42.633Z,9.17
2023-01-25T21:01:14.447Z,8.50
2023-01-25T21:03:41.631Z,9.73
2023-01-25T21:06:09.160Z,8.73
2023-01-25T21:08:36.736Z,9.43
2023-01-25T21:11:03.836Z,9.53
2023-01-25T21:13:30.932Z,9.90
2023-01-25T21:16:03.432Z,10.00
2023-01-25T21:18:40.497Z,10.17
2023-01-25T21:21:07.590Z,9.73
2023-01-25T21:23:35.112Z,10.50
2023-01-25T21:26:02.839Z,9.90
2023-01-25T21:28:30.095Z,10.57
2023-01-25T21:30:57.240Z,9.90
2023-01-25T21:33:24.766Z,10.10
2023-01-25T21:35:54.366Z,10.40
2023-01-25T21:38:21.865Z,10.83
2023-01-25T21:40:48.921Z,9.90
2023-01-25T21:43:17.871Z,9.10
2023-01-25T21:46:03.529Z,8.90
2023-01-25T21:48:49.599Z,10.43
2023-01-25T21:51:35.466Z,9.83
2023-01-25T21:54:02.902Z,10.90
2023-01-25T21:56:29.996Z,11.00
2023-01-25T21:58:57.162Z,11.77
2023-01-25T22:01:24.284Z,10.90
2023-01-25T22:03:51.717Z,11.17
2023-01-25T22:06:19.320Z,11.53
2023-01-25T22:08:46.475Z,11.43
2023-01-25T22:11:13.957Z,11.20
2023-01-25T22:13:41.091Z,12.17
2023-01-25T22:16:08.804Z,11.90
2023-01-25T22:18:37.423Z,11.93
2023-01-25T22:21:05.933Z,11.43
2023-01-25T22:23:33.654Z,11.27
2023-01-25T22:26:03.593Z,12.47
2023-01-25T22:28:35.687Z,12.63
2023-01-25T22:31:02.860Z,11.17
2023-01-25T22:33:29.990Z,12.23
2023-01-25T22:35:57.178Z,11.90
2023-01-25T22:38:24.282Z,11.07
2023-01-25T22:40:51.372Z,11.43
2023-01-25T22:43:18.404Z,12.33
2023-01-25T22:45:52.616Z,12.07
2023-01-25T22:48:20.070Z,11.63
2023-01-25T22:50:47.199Z,12.93
2023-01-25T22:53:14.550Z,11.83
2023-01-25T22:55:42.389Z,12.73
2023-01-25T22:58:09.987Z,13.40
2023-01-25T23:00:38.078Z,13.00
2023-01-25T23:03:05.429Z,13.57
2023-01-25T23:05:32.506Z,12.97
2023-01-25T23:07:59.600Z,13.33
2023-01-25T23:10:26.686Z,11.83
2023-01-25T23:12:55.539Z,12.80
2023-01-25T23:15:22.792Z,12.60
2023-01-25T23:18:08.827Z,12.30
2023-01-25T23:20:36.206Z,12.30
2023-01-25T23:23:03.339Z,12.23
2023-01-25T23:25:30.948Z,12.30
2023-01-25T23:27:58.036Z,12.60
2023-01-25T23:30:25.343Z,13.20
2023-01-25T23:32:52.455Z,11.50
2023-01-25T23:35:20.470Z,12.47
2023-01-25T23:37:48.419Z,12.13
2023-01-25T23:40:16.154Z,12.10
2023-01-25T23:42:43.289Z,12.80
2023-01-25T23:45:11.129Z,11.73
2023-01-25T23:47:38.607Z,13.33
2023-01-25T23:50:06.073Z,12.53
2023-01-25T23:52:33.248Z,12.33
2023-01-25T23:55:00.286Z,12.90
2023-01-25T23:57:27.421Z,12.13
2023-01-25T23:59:54.451Z,12.07
